createdAt,value
2022-08-20T00:00:02.336Z,1012.137
2022-08-20T00:07:01.732Z,1012.137
2022-08-20T00:14:01.528Z,1011.968
2022-08-20T00:21:01.568Z,1011.968
2022-08-20T00:28:01.599Z,1011.976
2022-08-20T00:35:01.917Z,1011.976
2022-08-20T00:42:02.249Z,1012.084
2022-08-20T00:49:02.337Z,1012.045
2022-08-20T00:56:02.150Z,1012.045
2022-08-20T01:00:01.697Z,1012.045
2022-08-20T01:07:02.136Z,1011.92
2022-08-20T01:14:01.980Z,1011.887
2022-08-20T01:21:02.315Z,1011.887
2022-08-20T01:28:01.849Z,1011.927
2022-08-20T01:35:01.836Z,1011.927
2022-08-20T01:42:01.669Z,1012
2022-08-20T01:49:01.384Z,1012
2022-08-20T01:56:01.974Z,1012.089
2022-08-20T02:00:01.585Z,1012.089
2022-08-20T02:07:01.885Z,1012.068
2022-08-20T02:14:01.887Z,1012.068
2022-08-20T02:21:01.543Z,1011.99
2022-08-20T02:28:01.433Z,1011.99
2022-08-20T02:35:01.888Z,1012.103
2022-08-20T02:42:01.843Z,1012.103
2022-08-20T02:49:01.538Z,1012.026
2022-08-20T02:56:02.205Z,1012.026
2022-08-20T03:00:01.851Z,1012.111
2022-08-20T03:07:01.567Z,1012.111
2022-08-20T03:14:02.243Z,1012.133
2022-08-20T03:21:01.882Z,1012.133
2022-08-20T03:28:02.294Z,1012.103
2022-08-20T03:35:01.893Z,1012.103
2022-08-20T03:42:01.994Z,1012.017
2022-08-20T03:49:02.084Z,1011.843
2022-08-20T03:56:02.463Z,1011.843
2022-08-20T04:00:02.180Z,1011.843
2022-08-20T04:07:01.971Z,1011.823
2022-08-20T04:14:01.395Z,1012.134
2022-08-20T04:21:02.237Z,1012.134
2022-08-20T04:28:01.634Z,1012.353
2022-08-20T04:35:01.760Z,1012.353
2022-08-20T04:42:01.929Z,1012.339
2022-08-20T04:49:01.373Z,1012.339
2022-08-20T04:56:01.354Z,1012.456
2022-08-20T05:00:02.023Z,1012.456
2022-08-20T05:07:01.844Z,1012.359
2022-08-20T05:14:01.916Z,1012.359
2022-08-20T05:21:01.419Z,1012.267
2022-08-20T05:28:01.541Z,1012.267
2022-08-20T05:35:01.742Z,1012.619
2022-08-20T05:42:01.992Z,1012.619
2022-08-20T05:49:02.183Z,1012.637
2022-08-20T05:56:02.094Z,1012.637
2022-08-20T06:00:01.662Z,1012.795
2022-08-20T06:07:02.180Z,1012.795
2022-08-20T06:14:01.846Z,1012.811
2022-08-20T06:21:01.480Z,1012.811
2022-08-20T06:28:01.496Z,1012.86
2022-08-20T06:35:03.681Z,1012.86
2022-08-20T06:42:02.176Z,1012.864
2022-08-20T06:49:01.792Z,1013.042
2022-08-20T06:56:02.033Z,1013.042
2022-08-20T07:00:01.621Z,1013.042
2022-08-20T07:07:01.811Z,1012.957
2022-08-20T07:14:02.010Z,1013.072
2022-08-20T07:21:01.735Z,1013.072
2022-08-20T07:28:02.288Z,1013.256
2022-08-20T07:35:02.535Z,1013.256
2022-08-20T07:42:01.966Z,1013.418
2022-08-20T07:49:01.710Z,1013.418
2022-08-20T07:56:02.166Z,1013.524
2022-08-20T08:00:01.807Z,1013.524
2022-08-20T08:07:01.382Z,1013.645
2022-08-20T08:14:01.561Z,1013.645
2022-08-20T08:21:01.739Z,1013.548
2022-08-20T08:28:01.424Z,1013.548
2022-08-20T08:35:02.065Z,1013.621
2022-08-20T08:42:02.048Z,1013.621
2022-08-20T08:49:01.830Z,1013.785
2022-08-20T08:56:02.097Z,1013.785
2022-08-20T09:00:04.864Z,1013.743
2022-08-20T09:07:01.567Z,1013.743
2022-08-20T09:14:01.721Z,1013.987
2022-08-20T09:21:01.541Z,1013.987
2022-08-20T09:28:01.916Z,1014.113
2022-08-20T09:35:05.622Z,1014.113
2022-08-20T09:42:02.194Z,1014.227
2022-08-20T09:49:02.198Z,1014.434
2022-08-20T09:56:01.976Z,1014.434
2022-08-20T10:00:01.567Z,1014.434
2022-08-20T10:07:01.756Z,1014.291
2022-08-20T10:14:02.147Z,1014.291
2022-08-20T10:21:02.009Z,1014.306
2022-08-20T10:28:01.661Z,1014.466
2022-08-20T10:35:02.505Z,1014.466
2022-08-20T10:42:02.282Z,1014.465
2022-08-20T10:49:01.406Z,1014.465
2022-08-20T10:56:01.984Z,1014.586
2022-08-20T11:00:01.517Z,1014.586
2022-08-20T11:07:02.286Z,1014.48
2022-08-20T11:14:01.387Z,1014.48
2022-08-20T11:21:01.693Z,1014.535
2022-08-20T11:28:01.921Z,1014.535
2022-08-20T11:35:13.771Z,1014.641
2022-08-20T11:42:02.334Z,1014.641
2022-08-20T11:49:01.567Z,1014.587
2022-08-20T11:56:01.517Z,1014.587
2022-08-20T12:00:02.068Z,1014.486
2022-08-20T12:07:02.030Z,1014.486
2022-08-20T12:14:01.930Z,1014.397
2022-08-20T12:21:01.413Z,1014.397
2022-08-20T12:28:01.903Z,1014.397
2022-08-20T12:35:01.877Z,1014.397
2022-08-20T12:42:01.778Z,1014.367
2022-08-20T12:49:01.389Z,1014.279
2022-08-20T12:56:02.157Z,1014.279
2022-08-20T13:00:01.757Z,1014.279
2022-08-20T13:07:01.873Z,1014.155
2022-08-20T13:14:01.831Z,1014.155
2022-08-20T13:21:02.093Z,1013.927
2022-08-20T13:28:02.087Z,1014.027
2022-08-20T13:35:01.803Z,1014.027
2022-08-20T13:42:01.468Z,1013.937
2022-08-20T13:49:02.170Z,1013.937
2022-08-20T13:56:01.463Z,1013.911
2022-08-20T14:00:02.084Z,1013.911
2022-08-20T14:07:01.497Z,1013.692
2022-08-20T14:14:02.306Z,1013.692
2022-08-20T14:21:01.840Z,1013.721
2022-08-20T14:28:02.307Z,1013.721
2022-08-20T14:35:02.046Z,1013.742
2022-08-20T14:42:02.190Z,1013.742
2022-08-20T14:49:01.351Z,1013.677
2022-08-20T14:56:01.892Z,1013.677
2022-08-20T15:00:02.641Z,1013.611
2022-08-20T15:07:10.744Z,1013.611
2022-08-20T15:14:02.099Z,1013.517
2022-08-20T15:21:01.343Z,1013.517
2022-08-20T15:28:01.923Z,1013.606
2022-08-20T15:35:01.727Z,1013.606
2022-08-20T15:42:01.389Z,1013.671
2022-08-20T15:49:01.418Z,1013.53
2022-08-20T15:56:02.335Z,1013.53
2022-08-20T16:00:01.955Z,1013.53
2022-08-20T16:07:01.757Z,1013.575
2022-08-20T16:14:01.358Z,1013.575
2022-08-20T16:21:03.807Z,1013.577
2022-08-20T16:28:02.224Z,1013.395
2022-08-20T16:35:01.584Z,1013.395
2022-08-20T16:42:05.872Z,1013.454
2022-08-20T16:49:01.491Z,1013.454
2022-08-20T16:56:02.230Z,1013.584
2022-08-20T17:00:01.849Z,1013.584
2022-08-20T17:07:02.197Z,1013.466
2022-08-20T17:14:01.999Z,1013.466
2022-08-20T17:21:02.101Z,1013.522
2022-08-20T17:28:02.088Z,1013.522
2022-08-20T17:35:02.374Z,1013.537
2022-08-20T17:42:02.134Z,1013.537
2022-08-20T17:49:01.852Z,1013.684
2022-08-20T17:56:01.945Z,1013.684
2022-08-20T18:00:02.870Z,1013.8
2022-08-20T18:07:01.497Z,1013.8
2022-08-20T18:14:01.886Z,1013.861
2022-08-20T18:21:02.068Z,1013.861
2022-08-20T18:28:01.415Z,1013.818
2022-08-20T18:35:03.973Z,1013.818
2022-08-20T18:42:01.667Z,1013.803
2022-08-20T18:49:01.471Z,1013.985
2022-08-20T18:56:01.795Z,1013.985
2022-08-20T19:00:02.416Z,1013.985
2022-08-20T19:07:02.011Z,1013.922
2022-08-20T19:14:01.635Z,1013.922
2022-08-20T19:21:02.028Z,1014.036
2022-08-20T19:28:02.566Z,1013.926
2022-08-20T19:35:01.902Z,1013.926
2022-08-20T19:42:01.780Z,1013.863
2022-08-20T19:49:01.873Z,1013.863
2022-08-20T19:56:02.259Z,1014.206
2022-08-20T20:00:01.878Z,1014.206
2022-08-20T20:07:01.871Z,1014.299
2022-08-20T20:14:02.295Z,1014.299
2022-08-20T20:21:01.466Z,1014.21
2022-08-20T20:28:01.868Z,1014.21
2022-08-20T20:35:01.871Z,1014.203
2022-08-20T20:42:01.636Z,1014.203
2022-08-20T20:49:01.498Z,1014.197
2022-08-20T20:56:01.557Z,1014.197
2022-08-20T21:00:02.226Z,1014.281
2022-08-20T21:07:01.439Z,1014.281
2022-08-20T21:14:02.275Z,1014.26
2022-08-20T21:21:01.745Z,1014.26
2022-08-20T21:28:02.121Z,1014.185
2022-08-20T21:35:02.011Z,1014.185
2022-08-20T21:42:01.641Z,1014.307
2022-08-20T21:49:01.436Z,1014.372
2022-08-20T21:56:01.568Z,1014.372
2022-08-20T22:00:02.117Z,1014.372
2022-08-20T22:07:01.806Z,1014.296
2022-08-20T22:14:01.429Z,1014.296
2022-08-20T22:21:02.095Z,1014.353
2022-08-20T22:28:02.061Z,1014.194
2022-08-20T22:35:01.721Z,1014.194
2022-08-20T22:42:01.566Z,1014.243
2022-08-20T22:49:02.118Z,1014.243
2022-08-20T22:56:02.301Z,1014.297
2022-08-20T23:00:01.881Z,1014.297
2022-08-20T23:07:02.063Z,1014.395
2022-08-20T23:14:01.346Z,1014.395
2022-08-20T23:21:01.529Z,1014.301
2022-08-20T23:28:04.394Z,1014.301
2022-08-20T23:35:01.924Z,1014.275
2022-08-20T23:42:01.390Z,1014.275
2022-08-20T23:49:02.094Z,1014.05
2022-08-20T23:56:01.837Z,1014.05
